Time,TemperatureF,DewpointF,PressureIn,WindDirection,WindDirectionDegrees,WindSpeedMPH,WindSpeedGustMPH,Humidity,HourlyPrecipIn,Conditions,Clouds,dailyrainin,SolarRadiationWatts/m^2,SoftwareType,DateUTC
2013-04-29 00:05:00,56.1,52.9,29.92,SW,226,5.0,5.0,89,0.00,,,0.00,0,Wunderground v.1.15,2013-04-29 07:05:00,
2013-04-29 00:10:00,56.3,53.1,29.92,SW,227,5.0,5.0,89,0.00,,,0.00,0,Wunderground v.1.15,2013-04-29 07:10:00,
2013-04-29 00:20:00,56.5,53.0,29.92,WSW,249,5.0,5.0,88,0.00,,,0.00,0,Wunderground v.1.15,2013-04-29 07:20:00,
2013-04-29 00:29:00,56.9,53.4,29.93,SW,227,4.0,6.0,88,0.00,,,0.00,0,Wunderground v.1.15,2013-04-29 07:29:00,
2013-04-29 00:34:00,56.9,53.4,29.93,WSW,239,4.0,6.0,88,0.00,,,0.00,0,Wunderground v.1.15,2013-04-29 07:34:00,
2013-04-29 00:40:00,57.0,53.5,29.93,WSW,253,5.0,5.0,88,0.00,,,0.00,0,Wunderground v.1.15,2013-04-29 07:40:00,
2013-04-29 00:45:00,56.8,53.0,29.93,WSW,243,5.0,6.0,87,0.00,,,0.00,0,Wunderground v.1.15,2013-04-29 07:45:00,
2013-04-29 00:55:00,56.6,52.8,29.93,SW,235,5.0,5.0,87,0.00,,,0.00,0,Wunderground v.1.15,2013-04-29 07:55:00,
2013-04-29 01:05:00,56.4,52.9,29.92,SW,230,5.0,5.0,88,0.00,,,0.00,0,Wunderground v.1.15,2013-04-29 08:05:00,
2013-04-29 01:10:00,56.3,52.8,29.92,SW,226,5.0,5.0,88,0.00,,,0.00,0,Wunderground v.1.15,2013-04-29 08:10:00,
2013-04-29 01:20:00,56.0,52.8,29.92,SW,218,5.0,6.0,89,0.00,,,0.00,0,Wunderground v.1.15,2013-04-29 08:20:00,
2013-04-29 01:25:00,55.8,52.3,29.93,WSW,257,6.0,6.0,88,0.00,,,0.00,0,Wunderground v.1.15,2013-04-29 08:25:00,
2013-04-29 01:35:00,55.6,52.1,29.93,SW,232,5.0,5.0,88,0.00,,,0.00,0,Wunderground v.1.15,2013-04-29 08:35:00,
2013-04-29 01:40:00,55.6,52.4,29.92,WSW,243,5.0,5.0,89,0.00,,,0.00,0,Wunderground v.1.15,2013-04-29 08:40:00,
2013-04-29 01:50:00,55.7,52.5,29.92,SW,222,5.0,5.0,89,0.00,,,0.00,0,Wunderground v.1.15,2013-04-29 08:50:00,
2013-04-29 01:55:00,55.7,52.5,29.92,SW,224,5.0,5.0,89,0.00,,,0.00,0,Wunderground v.1.15,2013-04-29 08:55:00,
2013-04-29 02:05:00,56.2,53.3,29.91,SSW,208,5.0,5.0,90,0.00,,,0.00,0,Wunderground v.1.15,2013-04-29 09:05:00,
2013-04-29 02:10:00,56.2,53.3,29.92,SSW,208,5.0,5.0,90,0.00,,,0.00,0,Wunderground v.1.15,2013-04-29 09:10:00,
2013-04-29 02:20:00,56.6,53.4,29.91,SSW,200,4.0,5.0,89,0.00,,,0.00,0,Wunderground v.1.15,2013-04-29 09:20:00,
2013-04-29 02:25:00,57.6,53.8,29.91,SW,222,5.0,5.0,87,0.00,,,0.00,0,Wunderground v.1.15,2013-04-29 09:25:00,
2013-04-29 02:35:00,57.2,53.4,29.92,SW,218,2.0,4.0,87,0.00,,,0.00,0,Wunderground v.1.15,2013-04-29 09:35:00,
2013-04-29 02:40:00,57.2,53.4,29.92,SW,218,1.0,3.0,87,0.00,,,0.00,0,Wunderground v.1.15,2013-04-29 09:40:00,
2013-04-29 02:50:00,56.9,53.4,29.92,SW,223,1.0,1.0,88,0.00,,,0.00,0,Wunderground v.1.15,2013-04-29 09:50:00,
2013-04-29 02:55:00,56.9,53.4,29.92,SW,218,1.0,2.0,88,0.00,,,0.00,0,Wunderground v.1.15,2013-04-29 09:55:00,
2013-04-29 03:05:00,57.3,53.5,29.91,SW,218,3.0,5.0,87,0.00,,,0.00,0,Wunderground v.1.15,2013-04-29 10:05:00,
2013-04-29 03:10:00,57.3,53.5,29.91,SW,222,2.0,2.0,87,0.00,,,0.00,0,Wunderground v.1.15,2013-04-29 10:10:00,
2013-04-29 03:20:00,57.3,53.5,29.91,SW,218,0.0,4.0,87,0.00,,,0.00,0,Wunderground v.1.15,2013-04-29 10:20:00,
2013-04-29 03:25:00,56.9,53.1,29.90,SW,218,2.0,4.0,87,0.00,,,0.00,0,Wunderground v.1.15,2013-04-29 10:25:00,
2013-04-29 03:35:00,57.0,53.5,29.90,SW,218,2.0,3.0,88,0.00,,,0.00,0,Wunderground v.1.15,2013-04-29 10:35:00,
2013-04-29 03:45:00,56.9,53.4,29.90,SW,218,2.0,2.0,88,0.00,,,0.00,0,Wunderground v.1.15,2013-04-29 10:45:00,
2013-04-29 03:50:00,57.0,53.5,29.90,SW,222,1.0,1.0,88,0.00,,,0.00,0,Wunderground v.1.15,2013-04-29 10:50:00,
2013-04-29 03:55:00,57.0,53.2,29.90,SW,222,1.0,2.0,87,0.00,,,0.00,0,Wunderground v.1.15,2013-04-29 10:55:00,
2013-04-29 04:05:00,57.0,53.5,29.90,SW,218,1.0,2.0,88,0.00,,,0.00,0,Wunderground v.1.15,2013-04-29 11:05:00,
2013-04-29 04:10:00,56.9,53.4,29.90,SW,223,0.0,0.0,88,0.00,,,0.00,0,Wunderground v.1.15,2013-04-29 11:10:00,
2013-04-29 04:20:00,56.6,53.4,29.90,SW,222,1.0,2.0,89,0.00,,,0.00,0,Wunderground v.1.15,2013-04-29 11:20:00,
2013-04-29 04:29:00,56.7,53.5,29.90,SW,218,2.0,2.0,89,0.00,,,0.00,0,Wunderground v.1.15,2013-04-29 11:29:00,
2013-04-29 04:35:00,56.7,53.5,29.90,SW,218,2.0,3.0,89,0.00,,,0.00,0,Wunderground v.1.15,2013-04-29 11:35:00,
2013-04-29 04:40:00,56.8,53.9,29.90,SSW,213,3.0,7.0,90,0.00,,,0.00,0,Wunderground v.1.15,2013-04-29 11:40:00,
2013-04-29 04:50:00,56.2,53.3,29.90,South,170,6.0,6.0,90,0.00,,,0.00,0,Wunderground v.1.15,2013-04-29 11:50:00,
2013-04-29 04:55:00,56.2,53.3,29.90,South,171,5.0,6.0,90,0.00,,,0.00,0,Wunderground v.1.15,2013-04-29 11:55:00,
2013-04-29 05:05:00,56.4,53.5,29.89,South,171,3.0,4.0,90,0.00,,,0.00,0,Wunderground v.1.15,2013-04-29 12:05:00,
2013-04-29 05:10:00,56.8,54.2,29.89,South,172,4.0,5.0,91,0.00,,,0.00,0,Wunderground v.1.15,2013-04-29 12:10:00,
2013-04-29 05:20:00,56.5,53.9,29.90,South,187,5.0,5.0,91,0.00,,,0.00,0,Wunderground v.1.15,2013-04-29 12:20:00,
2013-04-29 05:30:00,56.3,53.4,29.90,South,188,4.0,4.0,90,0.00,,,0.00,0,Wunderground v.1.15,2013-04-29 12:30:00,
2013-04-29 05:35:00,56.0,53.1,29.90,SSW,213,3.0,4.0,90,0.00,,,0.00,0,Wunderground v.1.15,2013-04-29 12:35:00,
2013-04-29 05:44:00,55.8,52.9,29.91,South,186,4.0,4.0,90,0.00,,,0.00,0,Wunderground v.1.15,2013-04-29 12:44:00,
2013-04-29 05:50:00,55.7,52.8,29.91,South,189,3.0,3.0,90,0.00,,,0.00,0,Wunderground v.1.15,2013-04-29 12:50:00,
2013-04-29 06:00:00,55.7,52.8,29.91,South,189,2.0,4.0,90,0.00,,,0.00,0,Wunderground v.1.15,2013-04-29 13:00:00,
2013-04-29 06:05:00,55.8,52.9,29.91,SSW,199,2.0,4.0,90,0.00,,,0.00,0,Wunderground v.1.15,2013-04-29 13:05:00,
2013-04-29 06:15:00,56.0,53.1,29.92,SSW,199,1.0,2.0,90,0.00,,,0.00,0,Wunderground v.1.15,2013-04-29 13:15:00,
2013-04-29 06:24:00,56.2,53.0,29.92,SSW,197,2.0,2.0,89,0.00,,,0.00,9,Wunderground v.1.15,2013-04-29 13:24:00,
2013-04-29 06:30:00,56.4,53.2,29.92,SSW,198,2.0,2.0,89,0.00,,,0.00,11,Wunderground v.1.15,2013-04-29 13:30:00,
2013-04-29 06:35:00,56.7,53.5,29.92,SSW,198,1.0,2.0,89,0.00,,,0.00,14,Wunderground v.1.15,2013-04-29 13:35:00,
2013-04-29 06:45:00,57.0,53.8,29.92,SSW,213,0.0,2.0,89,0.00,,,0.00,21,Wunderground v.1.15,2013-04-29 13:45:00,
2013-04-29 06:55:00,57.3,54.1,29.93,SSW,208,0.0,1.0,89,0.00,,,0.00,33,Wunderground v.1.15,2013-04-29 13:55:00,
2013-04-29 07:00:00,57.3,54.1,29.93,SSW,213,0.0,0.0,89,0.00,,,0.00,42,Wunderground v.1.15,2013-04-29 14:00:00,
2013-04-29 07:10:00,57.5,54.3,29.93,SSW,213,0.0,0.0,89,0.00,,,0.00,67,Wunderground v.1.15,2013-04-29 14:10:00,
2013-04-29 07:19:00,58.4,55.5,29.93,SSW,199,0.0,0.0,90,0.00,,,0.00,97,Wunderground v.1.15,2013-04-29 14:19:00,
2013-04-29 07:25:00,59.5,56.3,29.93,SSW,213,0.0,0.0,89,0.00,,,0.00,113,Wunderground v.1.15,2013-04-29 14:25:00,
2013-04-29 07:35:00,59.8,55.3,29.93,SSW,193,0.0,0.0,85,0.00,,,0.00,149,Wunderground v.1.15,2013-04-29 14:35:00,
2013-04-29 07:40:00,59.6,55.4,29.93,SSW,213,0.0,0.0,86,0.00,,,0.00,169,Wunderground v.1.15,2013-04-29 14:40:00,
2013-04-29 07:50:00,59.2,54.7,29.93,SSW,201,2.0,3.0,85,0.00,,,0.00,200,Wunderground v.1.15,2013-04-29 14:50:00,
2013-04-29 08:00:00,59.0,54.8,29.94,SSW,213,3.0,3.0,86,0.00,,,0.00,230,Wunderground v.1.15,2013-04-29 15:00:00,
2013-04-29 08:10:00,59.1,55.2,29.94,SSW,213,3.0,3.0,87,0.00,,,0.00,264,Wunderground v.1.15,2013-04-29 15:10:00,
2013-04-29 08:20:00,59.2,55.3,29.94,SSW,213,2.0,2.0,87,0.00,,,0.00,297,Wunderground v.1.15,2013-04-29 15:20:00,
2013-04-29 08:30:00,59.6,55.4,29.93,SSW,213,3.0,3.0,86,0.00,,,0.00,330,Wunderground v.1.15,2013-04-29 15:30:00,
2013-04-29 08:40:00,59.9,55.7,29.94,SSW,198,3.0,4.0,86,0.00,,,0.00,362,Wunderground v.1.15,2013-04-29 15:40:00,
2013-04-29 08:45:00,59.9,55.7,29.94,SSW,213,3.0,4.0,86,0.00,,,0.00,378,Wunderground v.1.15,2013-04-29 15:45:00,
2013-04-29 08:54:00,60.2,56.0,29.94,SSW,201,3.0,3.0,86,0.00,,,0.00,411,Wunderground v.1.15,2013-04-29 15:54:00,
2013-04-29 09:00:00,60.6,56.7,29.94,SSW,203,3.0,3.0,87,0.00,,,0.00,427,Wunderground v.1.15,2013-04-29 16:00:00,
2013-04-29 09:10:00,61.1,56.6,29.94,SSW,199,2.0,2.0,85,0.00,,,0.00,459,Wunderground v.1.15,2013-04-29 16:10:00,
2013-04-29 09:20:00,61.3,56.8,29.93,South,191,2.0,4.0,85,0.00,,,0.00,490,Wunderground v.1.15,2013-04-29 16:20:00,
2013-04-29 09:25:00,61.4,56.5,29.94,SSW,213,3.0,4.0,84,0.00,,,0.00,508,Wunderground v.1.15,2013-04-29 16:25:00,
2013-04-29 09:30:00,62.0,56.8,29.94,SSW,213,3.0,4.0,83,0.00,,,0.00,524,Wunderground v.1.15,2013-04-29 16:30:00,
2013-04-29 09:40:00,63.0,57.1,29.93,SSW,213,4.0,4.0,81,0.00,,,0.00,552,Wunderground v.1.15,2013-04-29 16:40:00,
2013-04-29 09:50:00,63.6,57.3,29.94,SSW,202,3.0,3.0,80,0.00,,,0.00,584,Wunderground v.1.15,2013-04-29 16:50:00,
2013-04-29 09:55:00,63.8,56.8,29.94,SSW,213,2.0,3.0,78,0.00,,,0.00,598,Wunderground v.1.15,2013-04-29 16:55:00,
2013-04-29 10:10:00,64.1,56.7,29.94,SSW,213,2.0,2.0,77,0.00,,,0.00,640,Wunderground v.1.15,2013-04-29 17:10:00,
2013-04-29 10:20:00,65.8,55.7,29.94,SW,232,2.0,6.0,70,0.00,,,0.00,666,Wunderground v.1.15,2013-04-29 17:20:00,
2013-04-29 10:25:00,65.8,56.9,29.93,WSW,240,4.0,6.0,73,0.00,,,0.00,680,Wunderground v.1.15,2013-04-29 17:25:00,
2013-04-29 10:40:00,66.9,57.2,29.93,WSW,237,5.0,5.0,71,0.00,,,0.00,721,Wunderground v.1.15,2013-04-29 17:40:00,
2013-04-29 10:54:00,67.1,57.0,29.93,WSW,245,4.0,6.0,70,0.00,,,0.00,754,Wunderground v.1.15,2013-04-29 17:54:00,
2013-04-29 11:05:00,66.8,55.9,29.93,SSW,213,6.0,6.0,68,0.00,,,0.00,779,Wunderground v.1.15,2013-04-29 18:05:00,
2013-04-29 11:15:00,68.4,56.6,29.92,SW,232,5.0,5.0,66,0.00,,,0.00,802,Wunderground v.1.15,2013-04-29 18:15:00,
2013-04-29 11:20:00,68.1,56.7,29.93,SW,228,5.0,5.0,67,0.00,,,0.00,809,Wunderground v.1.15,2013-04-29 18:20:00,
2013-04-29 11:25:00,68.4,56.6,29.92,SSW,199,6.0,8.0,66,0.00,,,0.00,819,Wunderground v.1.15,2013-04-29 18:25:00,
2013-04-29 11:30:00,68.6,55.9,29.93,SW,235,6.0,8.0,64,0.00,,,0.00,831,Wunderground v.1.15,2013-04-29 18:30:00,
2013-04-29 11:40:00,64.7,56.2,29.92,SSW,213,6.0,6.0,74,0.00,,,0.00,846,Wunderground v.1.15,2013-04-29 18:40:00,
2013-04-29 11:50:00,63.5,56.9,29.92,SW,233,6.0,7.0,79,0.00,,,0.00,865,Wunderground v.1.15,2013-04-29 18:50:00,
2013-04-29 12:00:00,65.2,57.8,29.92,SW,233,6.0,6.0,77,0.00,,,0.00,877,Wunderground v.1.15,2013-04-29 19:00:00,
2013-04-29 12:05:00,66.0,58.2,29.91,WSW,245,5.0,8.0,76,0.00,,,0.00,886,Wunderground v.1.15,2013-04-29 19:05:00,
2013-04-29 12:15:00,67.6,57.9,29.91,SW,232,4.0,5.0,71,0.00,,,0.00,900,Wunderground v.1.15,2013-04-29 19:15:00,
2013-04-29 12:25:00,67.0,56.5,29.91,SSW,213,5.0,8.0,69,0.00,,,0.00,912,Wunderground v.1.15,2013-04-29 19:25:00,
2013-04-29 12:30:00,66.8,56.3,29.90,SSW,213,6.0,8.0,69,0.00,,,0.00,914,Wunderground v.1.15,2013-04-29 19:30:00,
2013-04-29 12:35:00,67.4,56.5,29.90,SW,230,6.0,6.0,68,0.00,,,0.00,914,Wunderground v.1.15,2013-04-29 19:35:00,
2013-04-29 12:45:00,67.3,56.4,29.90,SW,226,7.0,7.0,68,0.00,,,0.00,919,Wunderground v.1.15,2013-04-29 19:45:00,
2013-04-29 12:55:00,66.8,55.9,29.89,SSW,213,7.0,7.0,68,0.00,,,0.00,907,Wunderground v.1.15,2013-04-29 19:55:00,
2013-04-29 13:00:00,67.6,55.8,29.89,SSW,213,6.0,8.0,66,0.00,,,0.00,926,Wunderground v.1.15,2013-04-29 20:00:00,
2013-04-29 13:09:00,66.5,55.2,29.89,SW,235,6.0,6.0,67,0.00,,,0.00,935,Wunderground v.1.15,2013-04-29 20:09:00,
2013-04-29 13:20:00,65.3,56.0,29.89,WSW,241,7.0,8.0,72,0.00,,,0.00,930,Wunderground v.1.15,2013-04-29 20:20:00,
2013-04-29 13:25:00,65.2,56.3,29.89,WSW,251,6.0,8.0,73,0.00,,,0.00,947,Wunderground v.1.15,2013-04-29 20:25:00,
2013-04-29 13:35:00,65.6,57.1,29.88,SSW,213,5.0,7.0,74,0.00,,,0.00,912,Wunderground v.1.15,2013-04-29 20:35:00,
2013-04-29 13:45:00,67.2,57.5,29.88,SW,230,5.0,5.0,71,0.00,,,0.00,937,Wunderground v.1.15,2013-04-29 20:45:00,
2013-04-29 13:50:00,66.9,57.6,29.87,SSW,213,6.0,6.0,72,0.00,,,0.00,963,Wunderground v.1.15,2013-04-29 20:50:00,
2013-04-29 13:55:00,68.2,56.8,29.87,WSW,258,6.0,6.0,67,0.00,,,0.00,942,Wunderground v.1.15,2013-04-29 20:55:00,
2013-04-29 14:10:00,67.4,56.9,29.87,SW,228,7.0,7.0,69,0.00,,,0.00,624,Wunderground v.1.15,2013-04-29 21:10:00,
2013-04-29 14:15:00,66.5,56.8,29.87,SW,229,6.0,9.0,71,0.00,,,0.00,803,Wunderground v.1.15,2013-04-29 21:15:00,
2013-04-29 14:25:00,65.9,56.6,29.86,SW,218,6.0,6.0,72,0.00,,,0.00,907,Wunderground v.1.15,2013-04-29 21:25:00,
2013-04-29 14:35:00,65.4,56.5,29.86,SSW,213,7.0,9.0,73,0.00,,,0.00,900,Wunderground v.1.15,2013-04-29 21:35:00,
2013-04-29 14:45:00,65.5,56.6,29.86,SW,223,6.0,6.0,73,0.00,,,0.00,874,Wunderground v.1.15,2013-04-29 21:45:00,
2013-04-29 14:50:00,66.5,56.8,29.86,SW,218,5.0,6.0,71,0.00,,,0.00,872,Wunderground v.1.15,2013-04-29 21:50:00,
2013-04-29 14:55:00,66.6,56.5,29.86,SW,231,5.0,5.0,70,0.00,,,0.00,861,Wunderground v.1.15,2013-04-29 21:55:00,
2013-04-29 15:05:00,65.9,56.6,29.85,SW,218,6.0,7.0,72,0.00,,,0.00,853,Wunderground v.1.15,2013-04-29 22:05:00,
2013-04-29 15:19:00,65.6,56.3,29.85,SW,218,6.0,6.0,72,0.00,,,0.00,824,Wunderground v.1.15,2013-04-29 22:19:00,
2013-04-29 15:25:00,65.4,56.1,29.85,SW,231,6.0,6.0,72,0.00,,,0.00,817,Wunderground v.1.15,2013-04-29 22:25:00,
2013-04-29 15:30:00,65.4,56.1,29.85,WSW,241,6.0,6.0,72,0.00,,,0.00,807,Wunderground v.1.15,2013-04-29 22:30:00,
2013-04-29 15:40:00,66.0,56.7,29.84,SW,218,5.0,5.0,72,0.00,,,0.00,782,Wunderground v.1.15,2013-04-29 22:40:00,
2013-04-29 15:55:00,64.8,55.9,29.84,SW,235,6.0,6.0,73,0.00,,,0.00,751,Wunderground v.1.15,2013-04-29 22:55:00,
2013-04-29 16:00:00,64.7,56.2,29.83,SSW,213,6.0,6.0,74,0.00,,,0.00,742,Wunderground v.1.15,2013-04-29 23:00:00,
2013-04-29 16:15:00,64.9,56.4,29.82,SW,231,5.0,9.0,74,0.00,,,0.00,712,Wunderground v.1.15,2013-04-29 23:15:00,
2013-04-29 16:29:00,64.2,55.7,29.82,SW,234,6.0,7.0,74,0.00,,,0.00,668,Wunderground v.1.15,2013-04-29 23:29:00,
2013-04-29 16:35:00,63.6,55.9,29.82,SW,218,6.0,7.0,76,0.00,,,0.00,657,Wunderground v.1.15,2013-04-29 23:35:00,
2013-04-29 16:40:00,64.0,55.9,29.82,SSW,213,5.0,5.0,75,0.00,,,0.00,640,Wunderground v.1.15,2013-04-29 23:40:00,
2013-04-29 16:50:00,64.4,56.3,29.82,SSW,213,5.0,6.0,75,0.00,,,0.00,613,Wunderground v.1.15,2013-04-29 23:50:00,
2013-04-29 17:00:00,63.2,55.5,29.82,SSW,213,7.0,8.0,76,0.00,,,0.00,578,Wunderground v.1.15,2013-04-30 00:00:00,
2013-04-29 17:10:00,61.3,54.4,29.82,South,180,9.0,10.0,78,0.00,,,0.00,538,Wunderground v.1.15,2013-04-30 00:10:00,
2013-04-29 17:15:00,60.3,54.4,29.82,SSW,213,11.0,11.0,81,0.00,,,0.00,497,Wunderground v.1.15,2013-04-30 00:15:00,
2013-04-29 17:24:00,60.0,54.8,29.81,SSW,213,12.0,12.0,83,0.00,,,0.00,492,Wunderground v.1.15,2013-04-30 00:24:00,
2013-04-29 17:35:00,60.1,55.2,29.81,South,191,10.0,10.0,84,0.00,,,0.00,452,Wunderground v.1.15,2013-04-30 00:35:00,
2013-04-29 17:44:00,60.1,55.2,29.81,SSW,213,8.0,10.0,84,0.00,,,0.00,401,Wunderground v.1.15,2013-04-30 00:44:00,
2013-04-29 17:49:00,59.8,55.3,29.81,South,185,9.0,10.0,85,0.00,,,0.00,392,Wunderground v.1.15,2013-04-30 00:49:00,
2013-04-29 18:05:00,59.9,55.4,29.81,SSW,213,10.0,10.0,85,0.00,,,0.00,325,Wunderground v.1.15,2013-04-30 01:05:00,
2013-04-29 18:14:00,60.0,55.2,29.80,South,171,9.0,9.0,84,0.00,,,0.00,315,Wunderground v.1.15,2013-04-30 01:14:00,
2013-04-29 18:20:00,60.4,55.9,29.80,SSW,213,8.0,9.0,85,0.00,,,0.00,302,Wunderground v.1.15,2013-04-30 01:20:00,
2013-04-29 18:25:00,60.1,55.6,29.80,SSW,213,7.0,7.0,85,0.00,,,0.00,285,Wunderground v.1.15,2013-04-30 01:25:00,
2013-04-29 18:35:00,60.7,56.2,29.81,SSW,193,5.0,5.0,85,0.00,,,0.00,237,Wunderground v.1.15,2013-04-30 01:35:00,
2013-04-29 18:50:00,60.5,55.6,29.80,South,178,6.0,6.0,84,0.00,,,0.00,220,Wunderground v.1.15,2013-04-30 01:50:00,
2013-04-29 19:00:00,60.3,55.1,29.80,South,180,6.0,6.0,83,0.00,,,0.00,172,Wunderground v.1.15,2013-04-30 02:00:00,
2013-04-29 19:05:00,60.5,55.6,29.80,South,189,5.0,6.0,84,0.00,,,0.00,146,Wunderground v.1.15,2013-04-30 02:05:00,
2013-04-29 19:15:00,61.0,56.1,29.80,South,184,3.0,4.0,84,0.00,,,0.00,105,Wunderground v.1.15,2013-04-30 02:15:00,
2013-04-29 19:25:00,61.3,56.4,29.80,SSW,213,4.0,5.0,84,0.00,,,0.00,62,Wunderground v.1.15,2013-04-30 02:25:00,
2013-04-29 19:30:00,61.2,56.3,29.80,SSW,213,5.0,5.0,84,0.00,,,0.00,44,Wunderground v.1.15,2013-04-30 02:30:00,
2013-04-29 19:40:00,61.1,56.2,29.80,SSW,213,3.0,3.0,84,0.00,,,0.00,16,Wunderground v.1.15,2013-04-30 02:40:00,
2013-04-29 19:49:00,60.9,56.0,29.80,SSW,208,2.0,2.0,84,0.00,,,0.00,7,Wunderground v.1.15,2013-04-30 02:49:00,
2013-04-29 19:55:00,60.9,55.7,29.80,SSW,208,2.0,3.0,83,0.00,,,0.00,5,Wunderground v.1.15,2013-04-30 02:55:00,
2013-04-29 20:00:00,60.9,55.7,29.80,SW,235,2.0,5.0,83,0.00,,,0.00,0,Wunderground v.1.15,2013-04-30 03:00:00,
2013-04-29 20:05:00,60.8,55.6,29.80,WSW,251,3.0,6.0,83,0.00,,,0.00,0,Wunderground v.1.15,2013-04-30 03:05:00,
2013-04-29 20:14:00,60.8,55.6,29.80,SW,224,4.0,4.0,83,0.00,,,0.00,0,Wunderground v.1.15,2013-04-30 03:14:00,
2013-04-29 20:24:00,61.3,55.8,29.80,SW,225,4.0,4.0,82,0.00,,,0.00,0,Wunderground v.1.15,2013-04-30 03:24:00,
2013-04-29 20:30:00,61.9,55.7,29.80,WSW,251,3.0,4.0,80,0.00,,,0.00,0,Wunderground v.1.15,2013-04-30 03:30:00,
2013-04-29 20:39:00,62.5,56.6,29.80,South,169,2.0,3.0,81,0.00,,,0.00,0,Wunderground v.1.15,2013-04-30 03:39:00,
2013-04-29 20:50:00,62.1,55.9,29.80,NNW,339,2.0,2.0,80,0.00,,,0.00,0,Wunderground v.1.15,2013-04-30 03:50:00,
2013-04-29 21:00:00,64.2,54.6,29.81,NNW,330,7.0,11.0,71,0.00,,,0.00,0,Wunderground v.1.15,2013-04-30 04:00:00,
2013-04-29 21:05:00,65.3,55.3,29.81,NW,320,11.0,11.0,70,0.00,,,0.00,0,Wunderground v.1.15,2013-04-30 04:05:00,
2013-04-29 21:14:00,66.3,53.3,29.81,NW,316,11.0,12.0,63,0.00,,,0.00,0,Wunderground v.1.15,2013-04-30 04:14:00,
2013-04-29 21:20:00,66.4,53.0,29.81,NNW,332,12.0,13.0,62,0.00,,,0.00,0,Wunderground v.1.15,2013-04-30 04:20:00,
2013-04-29 21:24:00,66.5,53.1,29.81,NNW,336,11.0,13.0,62,0.00,,,0.00,0,Wunderground v.1.15,2013-04-30 04:24:00,
2013-04-29 21:30:00,66.5,52.6,29.81,NNW,332,10.0,10.0,61,0.00,,,0.00,0,Wunderground v.1.15,2013-04-30 04:30:00,
2013-04-29 21:35:00,66.6,52.7,29.81,NNW,333,11.0,12.0,61,0.00,,,0.00,0,Wunderground v.1.15,2013-04-30 04:35:00,
2013-04-29 21:44:00,66.4,52.1,29.82,NW,320,11.0,13.0,60,0.00,,,0.00,0,Wunderground v.1.15,2013-04-30 04:44:00,
2013-04-29 21:50:00,66.2,51.9,29.82,NW,318,12.0,13.0,60,0.00,,,0.00,0,Wunderground v.1.15,2013-04-30 04:50:00,
2013-04-29 21:55:00,65.8,52.0,29.82,NW,325,12.0,13.0,61,0.00,,,0.00,0,Wunderground v.1.15,2013-04-30 04:55:00,
2013-04-29 22:05:00,65.0,51.7,29.82,NW,320,9.0,11.0,62,0.00,,,0.00,0,Wunderground v.1.15,2013-04-30 05:05:00,
2013-04-29 22:14:00,64.3,53.9,29.82,SSW,213,3.0,6.0,69,0.00,,,0.00,0,Wunderground v.1.15,2013-04-30 05:14:00,
2013-04-29 22:20:00,61.9,53.1,29.82,SSW,208,4.0,4.0,73,0.00,,,0.00,0,Wunderground v.1.15,2013-04-30 05:20:00,
2013-04-29 22:24:00,60.8,53.2,29.83,SW,218,6.0,6.0,76,0.00,,,0.00,0,Wunderground v.1.15,2013-04-30 05:24:00,
2013-04-29 22:29:00,60.2,53.0,29.83,SW,223,5.0,5.0,77,0.00,,,0.00,0,Wunderground v.1.15,2013-04-30 05:29:00,
2013-04-29 22:35:00,59.7,53.2,29.83,SSW,213,5.0,6.0,79,0.00,,,0.00,0,Wunderground v.1.15,2013-04-30 05:35:00,
2013-04-29 22:45:00,59.2,53.0,29.83,SW,218,5.0,6.0,80,0.00,,,0.00,0,Wunderground v.1.15,2013-04-30 05:45:00,
2013-04-29 22:50:00,58.9,53.1,29.83,SW,222,5.0,5.0,81,0.00,,,0.00,0,Wunderground v.1.15,2013-04-30 05:50:00,
2013-04-29 22:59:00,58.2,53.1,29.83,WSW,239,6.0,8.0,83,0.00,,,0.00,0,Wunderground v.1.15,2013-04-30 05:59:00,
2013-04-29 23:10:00,57.7,52.9,29.83,WSW,239,6.0,7.0,84,0.00,,,0.00,0,Wunderground v.1.15,2013-04-30 06:10:00,
2013-04-29 23:15:00,57.7,53.2,29.82,SW,228,5.0,7.0,85,0.00,,,0.00,0,Wunderground v.1.15,2013-04-30 06:15:00,
2013-04-29 23:20:00,57.6,53.1,29.83,SW,224,5.0,5.0,85,0.00,,,0.00,0,Wunderground v.1.15,2013-04-30 06:20:00,
2013-04-29 23:30:00,57.5,53.0,29.83,WSW,249,5.0,7.0,85,0.00,,,0.00,0,Wunderground v.1.15,2013-04-30 06:30:00,
2013-04-29 23:39:00,57.4,52.6,29.83,WSW,246,4.0,5.0,84,0.00,,,0.00,0,Wunderground v.1.15,2013-04-30 06:39:00,
2013-04-29 23:45:00,57.6,52.8,29.83,WSW,244,4.0,5.0,84,0.00,,,0.00,0,Wunderground v.1.15,2013-04-30 06:45:00,
2013-04-29 23:50:00,57.3,52.8,29.83,WSW,248,5.0,7.0,85,0.00,,,0.00,0,Wunderground v.1.15,2013-04-30 06:50:00,